Alma, Alabama
Current Conditions -  °F | °C
As of 8:53 AM on Thursday 18 Dec 2014 (Local Time) from KGZH Reporting Station
Clear Clear  
Wind Chill:   Ceiling: Unl
Heat Index:   Visibility: 10mi
Dew Point:   Wind: 6mph
Humidity: 71%   Direction: 30°NNE
Pressure: 30.24"   Gusts: NA
Location:  31.46°N, 87.75°W
Report Text: KGZH 181453Z AUTO 03005KT 10SM CLR 08/03 A3024 RMK AO2 SLP239 T00830033 51014
Loading
Personal Weather Stations






























Interactive Weather Map New forecast layout! Learn more

10-Day Weather Forecast

Advertisements
Track Severe Weather on mobile